sensor_id;sensor_type;location;lat;lon;timestamp;pressure;altitude;pressure_sealevel;temperature;humidity
38054;BME280;23859;50.672;7.164;2022-11-20T00:01:08;100375.00;;;4.03;100.00
38054;BME280;23859;50.672;7.164;2022-11-20T00:03:35;100377.53;;;4.04;100.00
38054;BME280;23859;50.672;7.164;2022-11-20T00:06:05;100382.06;;;4.02;100.00
38054;BME280;23859;50.672;7.164;2022-11-20T00:08:32;100383.25;;;3.85;100.00
38054;BME280;23859;50.672;7.164;2022-11-20T00:11:07;100376.56;;;3.93;100.00
38054;BME280;23859;50.672;7.164;2022-11-20T00:13:34;100372.81;;;4.09;100.00
38054;BME280;23859;50.672;7.164;2022-11-20T00:16:02;100372.75;;;4.23;100.00
38054;BME280;23859;50.672;7.164;2022-11-20T00:18:29;100366.16;;;4.30;99.91
38054;BME280;23859;50.672;7.164;2022-11-20T00:21:01;100372.22;;;4.18;100.00
38054;BME280;23859;50.672;7.164;2022-11-20T00:23:28;100376.94;;;4.13;100.00
38054;BME280;23859;50.672;7.164;2022-11-20T00:25:54;100371.91;;;4.23;100.00
38054;BME280;23859;50.672;7.164;2022-11-20T00:28:20;100370.13;;;4.23;100.00
38054;BME280;23859;50.672;7.164;2022-11-20T00:30:46;100373.56;;;4.11;99.85
38054;BME280;23859;50.672;7.164;2022-11-20T00:33:12;100368.44;;;4.22;100.00
38054;BME280;23859;50.672;7.164;2022-11-20T00:35:38;100377.88;;;4.12;100.00
38054;BME280;23859;50.672;7.164;2022-11-20T00:38:04;100378.56;;;4.02;100.00
38054;BME280;23859;50.672;7.164;2022-11-20T00:40:30;100375.88;;;4.03;100.00
38054;BME280;23859;50.672;7.164;2022-11-20T00:42:56;100376.09;;;4.13;100.00
38054;BME280;23859;50.672;7.164;2022-11-20T00:45:23;100371.56;;;4.15;100.00
38054;BME280;23859;50.672;7.164;2022-11-20T00:47:49;100372.53;;;4.14;100.00
38054;BME280;23859;50.672;7.164;2022-11-20T00:50:15;100370.19;;;4.09;100.00
38054;BME280;23859;50.672;7.164;2022-11-20T00:52:41;100365.69;;;4.11;100.00
38054;BME280;23859;50.672;7.164;2022-11-20T00:55:07;100363.47;;;4.05;100.00
38054;BME280;23859;50.672;7.164;2022-11-20T00:57:33;100366.63;;;4.10;100.00
38054;BME280;23859;50.672;7.164;2022-11-20T00:59:59;100366.09;;;4.05;100.00
38054;BME280;23859;50.672;7.164;2022-11-20T01:02:25;100364.22;;;4.07;100.00
38054;BME280;23859;50.672;7.164;2022-11-20T01:04:51;100364.41;;;4.04;100.00
38054;BME280;23859;50.672;7.164;2022-11-20T01:07:17;100369.06;;;4.13;100.00
38054;BME280;23859;50.672;7.164;2022-11-20T01:09:43;100367.03;;;4.04;100.00
38054;BME280;23859;50.672;7.164;2022-11-20T01:12:09;100368.06;;;4.02;100.00
38054;BME280;23859;50.672;7.164;2022-11-20T01:14:36;100368.72;;;4.05;100.00
38054;BME280;23859;50.672;7.164;2022-11-20T01:17:02;100357.97;;;3.96;100.00
38054;BME280;23859;50.672;7.164;2022-11-20T01:19:28;100363.19;;;3.84;100.00
38054;BME280;23859;50.672;7.164;2022-11-20T01:21:54;100355.84;;;3.89;100.00
38054;BME280;23859;50.672;7.164;2022-11-20T01:24:21;100353.53;;;3.84;100.00
38054;BME280;23859;50.672;7.164;2022-11-20T01:26:49;100347.03;;;3.90;100.00
38054;BME280;23859;50.672;7.164;2022-11-20T01:29:22;100338.53;;;3.98;100.00
38054;BME280;23859;50.672;7.164;2022-11-20T01:31:48;100340.41;;;3.96;100.00
38054;BME280;23859;50.672;7.164;2022-11-20T01:34:16;100344.28;;;3.91;100.00
38054;BME280;23859;50.672;7.164;2022-11-20T01:36:44;100351.56;;;3.88;100.00
38054;BME280;23859;50.672;7.164;2022-11-20T01:39:16;100350.94;;;3.96;100.00
38054;BME280;23859;50.672;7.164;2022-11-20T01:41:43;100357.13;;;3.95;100.00
38054;BME280;23859;50.672;7.164;2022-11-20T01:47:16;100348.59;;;3.92;100.00
38054;BME280;23859;50.672;7.164;2022-11-20T01:49:56;100342.75;;;4.01;100.00
38054;BME280;23859;50.672;7.164;2022-11-20T01:53:09;100355.25;;;3.97;100.00
38054;BME280;23859;50.672;7.164;2022-11-20T01:55:23;100351.34;;;3.91;100.00
38054;BME280;23859;50.672;7.164;2022-11-20T01:57:51;100338.47;;;4.12;100.00
38054;BME280;23859;50.672;7.164;2022-11-20T02:00:19;100337.19;;;4.05;100.00
38054;BME280;23859;50.672;7.164;2022-11-20T02:02:53;100339.91;;;4.04;100.00
38054;BME280;23859;50.672;7.164;2022-11-20T02:05:41;100344.75;;;3.97;100.00
38054;BME280;23859;50.672;7.164;2022-11-20T02:08:10;100353.34;;;3.99;100.00
38054;BME280;23859;50.672;7.164;2022-11-20T02:10:37;100355.69;;;4.04;100.00
38054;BME280;23859;50.672;7.164;2022-11-20T02:13:04;100349.06;;;4.11;100.00
38054;BME280;23859;50.672;7.164;2022-11-20T02:15:49;100348.88;;;4.14;100.00
38054;BME280;23859;50.672;7.164;2022-11-20T02:18:17;100352.22;;;4.03;100.00
38054;BME280;23859;50.672;7.164;2022-11-20T02:20:45;100356.38;;;3.93;100.00
38054;BME280;23859;50.672;7.164;2022-11-20T02:23:17;100359.13;;;3.92;100.00
38054;BME280;23859;50.672;7.164;2022-11-20T02:25:47;100348.72;;;3.91;100.00
38054;BME280;23859;50.672;7.164;2022-11-20T02:28:14;100353.03;;;3.92;100.00
38054;BME280;23859;50.672;7.164;2022-11-20T02:30:40;100342.75;;;4.01;100.00
38054;BME280;23859;50.672;7.164;2022-11-20T02:33:06;100344.94;;;3.94;100.00
38054;BME280;23859;50.672;7.164;2022-11-20T02:38:00;100338.22;;;4.03;100.00
38054;BME280;23859;50.672;7.164;2022-11-20T02:40:27;100340.13;;;4.01;100.00
38054;BME280;23859;50.672;7.164;2022-11-20T02:42:54;100334.00;;;4.00;100.00
38054;BME280;23859;50.672;7.164;2022-11-20T02:45:20;100334.94;;;3.99;100.00
38054;BME280;23859;50.672;7.164;2022-11-20T02:47:46;100334.25;;;4.22;100.00
38054;BME280;23859;50.672;7.164;2022-11-20T02:50:12;100340.56;;;4.07;100.00
38054;BME280;23859;50.672;7.164;2022-11-20T02:52:38;100331.19;;;4.03;100.00
38054;BME280;23859;50.672;7.164;2022-11-20T02:55:05;100330.69;;;4.11;100.00
38054;BME280;23859;50.672;7.164;2022-11-20T02:57:31;100317.09;;;4.04;100.00
38054;BME280;23859;50.672;7.164;2022-11-20T02:59:57;100320.97;;;3.99;100.00
38054;BME280;23859;50.672;7.164;2022-11-20T03:02:23;100315.31;;;4.05;100.00
38054;BME280;23859;50.672;7.164;2022-11-20T03:04:49;100312.81;;;4.16;100.00
38054;BME280;23859;50.672;7.164;2022-11-20T03:07:15;100307.94;;;3.97;100.00
38054;BME280;23859;50.672;7.164;2022-11-20T03:09:41;100291.88;;;4.14;100.00
38054;BME280;23859;50.672;7.164;2022-11-20T03:12:08;100297.69;;;4.19;100.00
38054;BME280;23859;50.672;7.164;2022-11-20T03:14:34;100204.66;;;3.46;100.00
38054;BME280;23859;50.672;7.164;2022-11-20T03:17:01;100324.38;;;4.13;100.00
38054;BME280;23859;50.672;7.164;2022-11-20T03:19:27;100331.84;;;4.19;100.00
38054;BME280;23859;50.672;7.164;2022-11-20T03:21:53;100323.22;;;4.17;100.00
38054;BME280;23859;50.672;7.164;2022-11-20T03:24:19;100320.81;;;4.14;100.00
38054;BME280;23859;50.672;7.164;2022-11-20T03:26:45;100317.44;;;4.12;100.00
38054;BME280;23859;50.672;7.164;2022-11-20T03:29:11;100318.47;;;4.10;100.00
38054;BME280;23859;50.672;7.164;2022-11-20T03:31:39;100312.59;;;4.19;100.00
38054;BME280;23859;50.672;7.164;2022-11-20T03:34:06;100314.91;;;4.23;100.00
38054;BME280;23859;50.672;7.164;2022-11-20T03:36:33;100314.69;;;4.26;100.00
38054;BME280;23859;50.672;7.164;2022-11-20T03:38:59;100314.81;;;4.25;100.00
38054;BME280;23859;50.672;7.164;2022-11-20T03:41:28;100317.53;;;4.23;100.00
38054;BME280;23859;50.672;7.164;2022-11-20T03:46:21;100322.44;;;4.03;100.00
38054;BME280;23859;50.672;7.164;2022-11-20T03:48:48;100319.19;;;4.12;100.00
38054;BME280;23859;50.672;7.164;2022-11-20T03:51:16;100310.88;;;4.05;100.00
38054;BME280;23859;50.672;7.164;2022-11-20T03:53:44;100306.78;;;4.01;100.00
38054;BME280;23859;50.672;7.164;2022-11-20T03:56:12;100302.69;;;3.97;100.00
38054;BME280;23859;50.672;7.164;2022-11-20T03:58:40;100300.06;;;3.97;100.00
38054;BME280;23859;50.672;7.164;2022-11-20T04:01:12;100296.50;;;3.98;100.00
38054;BME280;23859;50.672;7.164;2022-11-20T04:03:40;100295.63;;;3.98;100.00
38054;BME280;23859;50.672;7.164;2022-11-20T04:06:09;100289.44;;;4.11;100.00
38054;BME280;23859;50.672;7.164;2022-11-20T04:08:35;100287.56;;;4.13;100.00
38054;BME280;23859;50.672;7.164;2022-11-20T04:13:37;100295.03;;;4.19;100.00
38054;BME280;23859;50.672;7.164;2022-11-20T04:16:04;100289.25;;;4.14;100.00
38054;BME280;23859;50.672;7.164;2022-11-20T04:18:31;100291.13;;;4.12;100.00
38054;BME280;23859;50.672;7.164;2022-11-20T04:20:58;100286.81;;;4.11;100.00
38054;BME280;23859;50.672;7.164;2022-11-20T04:23:24;100283.25;;;4.12;100.00
38054;BME280;23859;50.672;7.164;2022-11-20T04:25:50;100286.06;;;4.09;100.00
38054;BME280;23859;50.672;7.164;2022-11-20T04:28:16;100278.22;;;4.22;100.00
38054;BME280;23859;50.672;7.164;2022-11-20T04:30:42;100272.09;;;4.21;100.00
38054;BME280;23859;50.672;7.164;2022-11-20T04:33:08;100266.53;;;4.38;100.00
38054;BME280;23859;50.672;7.164;2022-11-20T04:35:35;100270.53;;;4.31;100.00
38054;BME280;23859;50.672;7.164;2022-11-20T04:38:02;100283.78;;;4.30;100.00
38054;BME280;23859;50.672;7.164;2022-11-20T04:40:28;100273.50;;;4.27;100.00
38054;BME280;23859;50.672;7.164;2022-11-20T04:42:54;100275.19;;;4.28;100.00
38054;BME280;23859;50.672;7.164;2022-11-20T04:45:21;100274.84;;;4.32;100.00
38054;BME280;23859;50.672;7.164;2022-11-20T04:47:48;100277.69;;;4.29;100.00
38054;BME280;23859;50.672;7.164;2022-11-20T04:50:14;100276.94;;;4.27;100.00
38054;BME280;23859;50.672;7.164;2022-11-20T04:52:40;100277.47;;;4.32;100.00
38054;BME280;23859;50.672;7.164;2022-11-20T04:55:06;100269.28;;;4.24;100.00
38054;BME280;23859;50.672;7.164;2022-11-20T04:57:32;100273.91;;;4.33;100.00
38054;BME280;23859;50.672;7.164;2022-11-20T04:59:58;100269.47;;;4.34;100.00
38054;BME280;23859;50.672;7.164;2022-11-20T05:02:24;100276.94;;;4.27;100.00
38054;BME280;23859;50.672;7.164;2022-11-20T05:04:50;100281.16;;;4.30;100.00
38054;BME280;23859;50.672;7.164;2022-11-20T05:07:17;100272.72;;;4.37;100.00
38054;BME280;23859;50.672;7.164;2022-11-20T05:09:43;100270.94;;;4.25;100.00
38054;BME280;23859;50.672;7.164;2022-11-20T05:12:09;100272.44;;;4.29;100.00
38054;BME280;23859;50.672;7.164;2022-11-20T05:14:35;100272.22;;;4.32;100.00
38054;BME280;23859;50.672;7.164;2022-11-20T05:17:01;100269.69;;;4.31;100.00
38054;BME280;23859;50.672;7.164;2022-11-20T05:19:27;100276.94;;;4.40;100.00
38054;BME280;23859;50.672;7.164;2022-11-20T05:21:54;100278.94;;;4.36;100.00
38054;BME280;23859;50.672;7.164;2022-11-20T05:24:20;100274.13;;;4.30;100.00
38054;BME280;23859;50.672;7.164;2022-11-20T05:26:46;100260.00;;;4.31;100.00
38054;BME280;23859;50.672;7.164;2022-11-20T05:29:12;100261.41;;;4.24;100.00
38054;BME280;23859;50.672;7.164;2022-11-20T05:31:40;100264.03;;;4.24;100.00
38054;BME280;23859;50.672;7.164;2022-11-20T05:34:06;100261.28;;;4.26;100.00
38054;BME280;23859;50.672;7.164;2022-11-20T05:36:32;100257.06;;;4.23;100.00
38054;BME280;23859;50.672;7.164;2022-11-20T05:38:58;100263.91;;;4.38;100.00
38054;BME280;23859;50.672;7.164;2022-11-20T05:41:25;100264.00;;;4.37;100.00
38054;BME280;23859;50.672;7.164;2022-11-20T05:43:51;100268.22;;;4.27;100.00
38054;BME280;23859;50.672;7.164;2022-11-20T05:46:19;100274.00;;;4.32;100.00
38054;BME280;23859;50.672;7.164;2022-11-20T05:48:46;100281.03;;;4.31;100.00
38054;BME280;23859;50.672;7.164;2022-11-20T05:51:15;100283.38;;;4.23;100.00
38054;BME280;23859;50.672;7.164;2022-11-20T05:53:42;100285.34;;;4.32;100.00
38054;BME280;23859;50.672;7.164;2022-11-20T05:56:11;100288.41;;;4.39;100.00
38054;BME280;23859;50.672;7.164;2022-11-20T05:58:38;100280.44;;;4.40;100.00
38054;BME280;23859;50.672;7.164;2022-11-20T06:01:10;100280.44;;;4.40;100.00
38054;BME280;23859;50.672;7.164;2022-11-20T06:03:38;100277.28;;;4.35;100.00
38054;BME280;23859;50.672;7.164;2022-11-20T06:06:05;100282.00;;;4.43;100.00
38054;BME280;23859;50.672;7.164;2022-11-20T06:08:32;100286.09;;;4.47;100.00
38054;BME280;23859;50.672;7.164;2022-11-20T06:10:58;100287.38;;;4.41;100.00
38054;BME280;23859;50.672;7.164;2022-11-20T06:13:28;100290.59;;;4.45;100.00
38054;BME280;23859;50.672;7.164;2022-11-20T06:15:54;100284.94;;;4.38;100.00
38054;BME280;23859;50.672;7.164;2022-11-20T06:18:20;100279.28;;;4.32;100.00
38054;BME280;23859;50.672;7.164;2022-11-20T06:20:47;100279.56;;;4.40;100.00
38054;BME280;23859;50.672;7.164;2022-11-20T06:23:13;100285.47;;;4.31;100.00
38054;BME280;23859;50.672;7.164;2022-11-20T06:25:41;100288.41;;;4.39;100.00
38054;BME280;23859;50.672;7.164;2022-11-20T06:28:07;100284.75;;;4.41;100.00
38054;BME280;23859;50.672;7.164;2022-11-20T06:30:34;100289.91;;;4.30;100.00
38054;BME280;23859;50.672;7.164;2022-11-20T06:33:01;100272.09;;;4.21;100.00
38054;BME280;23859;50.672;7.164;2022-11-20T06:35:27;100273.06;;;4.33;100.00
38054;BME280;23859;50.672;7.164;2022-11-20T06:37:53;100281.47;;;4.38;100.00
38054;BME280;23859;50.672;7.164;2022-11-20T06:40:19;100279.91;;;4.35;100.00
38054;BME280;23859;50.672;7.164;2022-11-20T06:42:45;100287.78;;;4.35;100.00
38054;BME280;23859;50.672;7.164;2022-11-20T06:45:11;100286.09;;;4.34;100.00
38054;BME280;23859;50.672;7.164;2022-11-20T06:47:37;100284.41;;;4.33;100.00
38054;BME280;23859;50.672;7.164;2022-11-20T06:50:03;100283.13;;;4.39;100.00
38054;BME280;23859;50.672;7.164;2022-11-20T06:52:29;100287.78;;;4.48;100.00
38054;BME280;23859;50.672;7.164;2022-11-20T06:54:55;100290.06;;;4.52;100.00
38054;BME280;23859;50.672;7.164;2022-11-20T06:57:21;100305.44;;;4.58;100.00
38054;BME280;23859;50.672;7.164;2022-11-20T06:59:47;100308.59;;;4.75;100.00
38054;BME280;23859;50.672;7.164;2022-11-20T07:02:13;100307.91;;;4.97;100.00
38054;BME280;23859;50.672;7.164;2022-11-20T07:04:39;100310.97;;;4.91;100.00
38054;BME280;23859;50.672;7.164;2022-11-20T07:07:05;100331.00;;;5.17;100.00
38054;BME280;23859;50.672;7.164;2022-11-20T07:09:32;100307.41;;;4.92;100.00
38054;BME280;23859;50.672;7.164;2022-11-20T07:11:59;100309.28;;;4.90;100.00
38054;BME280;23859;50.672;7.164;2022-11-20T07:14:26;100307.06;;;4.96;100.00
38054;BME280;23859;50.672;7.164;2022-11-20T07:16:52;100314.88;;;4.85;100.00
38054;BME280;23859;50.672;7.164;2022-11-20T07:19:18;100321.84;;;4.86;100.00
38054;BME280;23859;50.672;7.164;2022-11-20T07:21:44;100318.47;;;4.84;100.00
38054;BME280;23859;50.672;7.164;2022-11-20T07:24:10;100323.00;;;4.95;100.00
38054;BME280;23859;50.672;7.164;2022-11-20T07:26:36;100323.41;;;4.89;100.00
38054;BME280;23859;50.672;7.164;2022-11-20T07:29:02;100322.00;;;5.08;100.00
38054;BME280;23859;50.672;7.164;2022-11-20T07:31:28;100321.22;;;5.19;100.00
38054;BME280;23859;50.672;7.164;2022-11-20T07:33:54;100320.72;;;5.14;100.00
38054;BME280;23859;50.672;7.164;2022-11-20T07:36:20;100325.22;;;5.24;100.00
38054;BME280;23859;50.672;7.164;2022-11-20T07:38:46;100327.31;;;5.31;100.00
38054;BME280;23859;50.672;7.164;2022-11-20T07:41:12;100335.59;;;5.38;100.00
38054;BME280;23859;50.672;7.164;2022-11-20T07:43:38;100332.72;;;5.41;100.00
38054;BME280;23859;50.672;7.164;2022-11-20T07:46:04;100333.34;;;5.44;100.00
38054;BME280;23859;50.672;7.164;2022-11-20T07:48:30;100330.84;;;5.43;100.00
38054;BME280;23859;50.672;7.164;2022-11-20T07:50:57;100332.00;;;5.16;100.00
38054;BME280;23859;50.672;7.164;2022-11-20T07:53:24;100328.72;;;5.12;100.00
38054;BME280;23859;50.672;7.164;2022-11-20T07:55:50;100329.34;;;5.16;100.00
38054;BME280;23859;50.672;7.164;2022-11-20T07:58:18;100327.66;;;5.15;100.00
38054;BME280;23859;50.672;7.164;2022-11-20T08:00:46;100332.88;;;5.27;100.00
38054;BME280;23859;50.672;7.164;2022-11-20T08:03:12;100331.28;;;5.37;100.00
38054;BME280;23859;50.672;7.164;2022-11-20T08:05:38;100336.00;;;5.44;100.00
38054;BME280;23859;50.672;7.164;2022-11-20T08:08:04;100335.53;;;5.50;100.00
38054;BME280;23859;50.672;7.164;2022-11-20T08:10:30;100330.22;;;5.63;100.00
38054;BME280;23859;50.672;7.164;2022-11-20T08:12:56;100345.66;;;5.56;100.00
38054;BME280;23859;50.672;7.164;2022-11-20T08:15:41;100330.56;;;5.58;100.00
38054;BME280;23859;50.672;7.164;2022-11-20T08:18:13;100330.13;;;5.64;100.00
38054;BME280;23859;50.672;7.164;2022-11-20T08:20:39;100335.00;;;5.81;99.10
38054;BME280;23859;50.672;7.164;2022-11-20T08:23:07;100327.75;;;5.49;100.00
38054;BME280;23859;50.672;7.164;2022-11-20T08:25:34;100327.69;;;5.61;100.00
38054;BME280;23859;50.672;7.164;2022-11-20T08:28:06;100335.81;;;5.35;100.00
38054;BME280;23859;50.672;7.164;2022-11-20T08:30:33;100334.09;;;5.46;100.00
38054;BME280;23859;50.672;7.164;2022-11-20T08:33:03;100331.59;;;5.32;100.00
38054;BME280;23859;50.672;7.164;2022-11-20T08:35:36;100337.50;;;5.36;100.00
38054;BME280;23859;50.672;7.164;2022-11-20T08:38:04;100333.22;;;5.46;100.00
38054;BME280;23859;50.672;7.164;2022-11-20T08:40:31;100334.97;;;5.34;100.00
38054;BME280;23859;50.672;7.164;2022-11-20T08:42:57;100339.84;;;5.28;100.00
38054;BME280;23859;50.672;7.164;2022-11-20T08:45:23;100335.22;;;5.31;100.00
38054;BME280;23859;50.672;7.164;2022-11-20T08:47:50;100330.00;;;5.42;100.00
38054;BME280;23859;50.672;7.164;2022-11-20T08:50:16;100330.13;;;5.64;100.00
38054;BME280;23859;50.672;7.164;2022-11-20T08:52:43;100336.06;;;5.79;100.00
38054;BME280;23859;50.672;7.164;2022-11-20T08:55:10;100329.41;;;5.86;100.00
38054;BME280;23859;50.672;7.164;2022-11-20T08:57:37;100343.56;;;5.72;99.08
38054;BME280;23859;50.672;7.164;2022-11-20T09:00:05;100342.06;;;5.57;99.12
38054;BME280;23859;50.672;7.164;2022-11-20T09:02:32;100342.13;;;5.68;99.91
38054;BME280;23859;50.672;7.164;2022-11-20T09:04:58;100343.94;;;5.55;99.57
38054;BME280;23859;50.672;7.164;2022-11-20T09:07:24;100336.56;;;5.60;99.38
38054;BME280;23859;50.672;7.164;2022-11-20T09:09:50;100334.09;;;5.46;100.00
38054;BME280;23859;50.672;7.164;2022-11-20T09:12:16;100330.41;;;5.49;100.00
38054;BME280;23859;50.672;7.164;2022-11-20T09:14:42;100331.06;;;5.63;100.00
38054;BME280;23859;50.672;7.164;2022-11-20T09:17:10;100332.91;;;5.74;100.00
38054;BME280;23859;50.672;7.164;2022-11-20T09:19:39;100326.97;;;5.59;99.94
38054;BME280;23859;50.672;7.164;2022-11-20T09:22:06;100324.94;;;5.63;100.00
38054;BME280;23859;50.672;7.164;2022-11-20T09:24:32;100329.59;;;5.59;100.00
38054;BME280;23859;50.672;7.164;2022-11-20T09:27:02;100332.66;;;5.89;99.11
38054;BME280;23859;50.672;7.164;2022-11-20T09:29:28;100331.56;;;5.68;100.00
38054;BME280;23859;50.672;7.164;2022-11-20T09:31:54;100334.84;;;5.72;100.00
38054;BME280;23859;50.672;7.164;2022-11-20T09:34:20;100334.41;;;5.65;100.00
38054;BME280;23859;50.672;7.164;2022-11-20T09:36:46;100326.00;;;5.60;100.00
38054;BME280;23859;50.672;7.164;2022-11-20T09:39:12;100324.16;;;5.73;100.00
38054;BME280;23859;50.672;7.164;2022-11-20T09:41:58;100305.94;;;5.70;100.00
38054;BME280;23859;50.672;7.164;2022-11-20T09:47:26;100297.50;;;6.12;99.11
38054;BME280;23859;50.672;7.164;2022-11-20T09:50:25;100290.34;;;7.01;94.40
38054;BME280;23859;50.672;7.164;2022-11-20T09:53:13;100301.56;;;7.36;90.82
38054;BME280;23859;50.672;7.164;2022-11-20T09:55:42;100292.81;;;8.59;85.19
38054;BME280;23859;50.672;7.164;2022-11-20T09:58:48;100298.09;;;8.79;80.71
38054;BME280;23859;50.672;7.164;2022-11-20T10:01:16;100287.84;;;9.53;77.52
38054;BME280;23859;50.672;7.164;2022-11-20T10:06:19;100286.13;;;8.85;78.42
38054;BME280;23859;50.672;7.164;2022-11-20T10:09:18;100285.19;;;8.15;80.80
38054;BME280;23859;50.672;7.164;2022-11-20T10:25:33;100291.44;;;6.99;88.19
38054;BME280;23859;50.672;7.164;2022-11-20T10:28:28;100272.59;;;7.03;88.14
38054;BME280;23859;50.672;7.164;2022-11-20T10:31:00;100255.25;;;7.21;88.85
38054;BME280;23859;50.672;7.164;2022-11-20T10:33:36;100257.72;;;6.91;89.08
38054;BME280;23859;50.672;7.164;2022-11-20T10:38:46;100245.84;;;6.75;91.26
38054;BME280;23859;50.672;7.164;2022-11-20T10:41:32;100237.69;;;6.78;93.63
38054;BME280;23859;50.672;7.164;2022-11-20T10:44:15;100244.66;;;6.68;92.44
38054;BME280;23859;50.672;7.164;2022-11-20T10:47:03;100240.69;;;6.84;90.83
38054;BME280;23859;50.672;7.164;2022-11-20T10:49:31;100232.31;;;6.58;91.72
38054;BME280;23859;50.672;7.164;2022-11-20T10:52:21;100227.16;;;6.56;93.04
38054;BME280;23859;50.672;7.164;2022-11-20T10:57:53;100222.34;;;6.50;93.67
38054;BME280;23859;50.672;7.164;2022-11-20T11:00:21;100224.75;;;6.53;94.06
38054;BME280;23859;50.672;7.164;2022-11-20T11:02:49;100222.94;;;6.75;93.59
38054;BME280;23859;50.672;7.164;2022-11-20T11:05:32;100213.31;;;6.85;92.93
38054;BME280;23859;50.672;7.164;2022-11-20T11:08:00;100206.69;;;6.91;92.52
38054;BME280;23859;50.672;7.164;2022-11-20T11:10:36;100205.59;;;7.04;92.63
38054;BME280;23859;50.672;7.164;2022-11-20T11:13:07;100213.44;;;6.84;92.14
38054;BME280;23859;50.672;7.164;2022-11-20T11:15:40;100207.78;;;6.88;91.70
38054;BME280;23859;50.672;7.164;2022-11-20T11:18:10;100202.78;;;6.74;92.41
38054;BME280;23859;50.672;7.164;2022-11-20T11:20:37;100182.63;;;6.62;91.84
38054;BME280;23859;50.672;7.164;2022-11-20T11:23:04;100192.34;;;7.15;90.65
38054;BME280;23859;50.672;7.164;2022-11-20T11:25:32;100186.81;;;7.18;91.09
38054;BME280;23859;50.672;7.164;2022-11-20T11:30:44;100179.97;;;7.47;89.41
38054;BME280;23859;50.672;7.164;2022-11-20T11:33:18;100174.13;;;7.43;88.62
38054;BME280;23859;50.672;7.164;2022-11-20T11:35:50;100166.09;;;7.75;87.74
38054;BME280;23859;50.672;7.164;2022-11-20T11:38:33;100165.78;;;7.89;86.98
38054;BME280;23859;50.672;7.164;2022-11-20T11:41:01;100158.97;;;7.86;86.94
38054;BME280;23859;50.672;7.164;2022-11-20T11:43:33;100162.44;;;7.46;88.85
38054;BME280;23859;50.672;7.164;2022-11-20T11:49:19;100156.63;;;7.31;90.58
38054;BME280;23859;50.672;7.164;2022-11-20T11:52:10;100147.34;;;7.37;89.74
38054;BME280;23859;50.672;7.164;2022-11-20T11:54:50;100139.41;;;7.37;90.60
38054;BME280;23859;50.672;7.164;2022-11-20T11:57:40;100142.97;;;7.27;92.23
38054;BME280;23859;50.672;7.164;2022-11-20T12:00:20;100130.34;;;7.30;92.21
38054;BME280;23859;50.672;7.164;2022-11-20T12:05:23;100129.09;;;7.34;91.24
38054;BME280;23859;50.672;7.164;2022-11-20T12:10:48;100128.53;;;7.51;91.39
38054;BME280;23859;50.672;7.164;2022-11-20T12:13:27;100117.47;;;7.87;89.72
38054;BME280;23859;50.672;7.164;2022-11-20T12:15:56;100116.34;;;7.59;91.02
38054;BME280;23859;50.672;7.164;2022-11-20T12:18:23;100106.06;;;7.86;90.27
38054;BME280;23859;50.672;7.164;2022-11-20T12:24:21;100101.88;;;7.84;89.30
38054;BME280;23859;50.672;7.164;2022-11-20T12:35:16;100089.63;;;7.83;91.73
38054;BME280;23859;50.672;7.164;2022-11-20T12:43:28;100079.34;;;7.89;91.36
38054;BME280;23859;50.672;7.164;2022-11-20T12:46:37;100072.19;;;8.10;89.81
38054;BME280;23859;50.672;7.164;2022-11-20T12:49:32;100066.69;;;7.93;91.49
38054;BME280;23859;50.672;7.164;2022-11-20T12:52:06;100062.56;;;7.99;91.32
38054;BME280;23859;50.672;7.164;2022-11-20T12:55:11;100063.47;;;7.89;92.08
38054;BME280;23859;50.672;7.164;2022-11-20T12:58:34;100048.50;;;8.08;90.86
38054;BME280;23859;50.672;7.164;2022-11-20T13:00:32;100049.41;;;8.18;91.33
38054;BME280;23859;50.672;7.164;2022-11-20T13:06:16;100048.00;;;8.14;91.33
38054;BME280;23859;50.672;7.164;2022-11-20T13:08:52;100048.22;;;8.02;91.72
38054;BME280;23859;50.672;7.164;2022-11-20T13:12:08;100037.94;;;8.08;91.95
38054;BME280;23859;50.672;7.164;2022-11-20T13:15:08;100033.97;;;7.93;92.77
38054;BME280;23859;50.672;7.164;2022-11-20T13:17:45;100023.56;;;8.01;93.80
38054;BME280;23859;50.672;7.164;2022-11-20T13:20:18;100018.97;;;8.03;93.11
38054;BME280;23859;50.672;7.164;2022-11-20T13:22:49;100009.53;;;8.10;93.57
38054;BME280;23859;50.672;7.164;2022-11-20T13:25:28;100011.06;;;8.13;93.03
38054;BME280;23859;50.672;7.164;2022-11-20T13:27:57;100007.69;;;8.01;93.98
38054;BME280;23859;50.672;7.164;2022-11-20T13:30:28;100008.16;;;7.77;94.90
38054;BME280;23859;50.672;7.164;2022-11-20T13:33:04;100003.16;;;7.83;95.66
38054;BME280;23859;50.672;7.164;2022-11-20T13:35:37;99998.16;;;7.90;95.60
38054;BME280;23859;50.672;7.164;2022-11-20T13:40:54;99984.94;;;7.80;95.18
38054;BME280;23859;50.672;7.164;2022-11-20T13:43:41;99982.97;;;7.73;96.67
38054;BME280;23859;50.672;7.164;2022-11-20T13:46:09;99987.97;;;7.76;96.56
38054;BME280;23859;50.672;7.164;2022-11-20T13:48:40;99974.56;;;7.68;97.26
38054;BME280;23859;50.672;7.164;2022-11-20T13:57:02;99971.56;;;7.82;97.01
38054;BME280;23859;50.672;7.164;2022-11-20T14:02:22;99956.81;;;7.79;97.22
38054;BME280;23859;50.672;7.164;2022-11-20T14:04:52;99948.13;;;7.68;97.53
38054;BME280;23859;50.672;7.164;2022-11-20T14:07:21;99946.50;;;7.76;98.08
38054;BME280;23859;50.672;7.164;2022-11-20T14:09:54;99945.09;;;7.72;98.00
38054;BME280;23859;50.672;7.164;2022-11-20T14:12:27;99937.31;;;7.71;98.21
38054;BME280;23859;50.672;7.164;2022-11-20T14:14:54;99936.22;;;7.83;97.81
38054;BME280;23859;50.672;7.164;2022-11-20T14:19:51;99917.13;;;7.70;98.76
38054;BME280;23859;50.672;7.164;2022-11-20T14:22:26;99918.78;;;7.71;98.40
38054;BME280;23859;50.672;7.164;2022-11-20T14:27:37;99916.41;;;7.68;99.23
38054;BME280;23859;50.672;7.164;2022-11-20T14:30:05;99919.50;;;7.73;98.63